Time;durP1;ratioP1;P1;durP2;ratioP2;P2;SDS_P1;SDS_P2;PMS_P1;PMS_P2;Temp;Humidity;BMP_temperature;BMP_pressure;BME280_temperature;BME280_humidity;BME280_pressure;Samples;Min_cycle;Max_cycle;Signal;HPM_P1;HPM_P2
2023/06/18 00:02:04;;;;;;;29.38;25.83;;;16.50;99.90;;;;;;5075185;28;20114;-76
2023/06/18 00:04:30;;;;;;;29.58;26.38;;;16.50;99.90;;;;;;5061552;28;20119;-70
2023/06/18 00:06:56;;;;;;;29.85;26.10;;;16.50;99.90;;;;;;5030030;28;20048;-74
2023/06/18 00:09:22;;;;;;;32.97;27.38;;;16.50;99.90;;;;;;5030039;28;20053;-70
2023/06/18 00:11:49;;;;;;;33.08;27.42;;;16.50;99.90;;;;;;5053671;28;20086;-70
2023/06/18 00:14:15;;;;;;;33.17;28.02;;;16.50;99.90;;;;;;5056601;28;20045;-70
2023/06/18 00:16:41;;;;;;;35.40;28.02;;;16.50;99.90;;;;;;5050081;28;20127;-70
2023/06/18 00:19:07;;;;;;;32.13;28.13;;;16.50;99.90;;;;;;5045715;28;20116;-77
2023/06/18 00:21:32;;;;;;;29.80;26.27;;;16.50;99.90;;;;;;5021192;28;20081;-70
2023/06/18 00:23:58;;;;;;;33.20;27.38;;;16.50;99.90;;;;;;5040486;28;20495;-71
2023/06/18 00:26:25;;;;;;;33.47;26.60;;;16.40;99.90;;;;;;5037592;28;20051;-70
2023/06/18 00:28:54;;;;;;;34.55;27.52;;;16.40;99.90;;;;;;5052663;28;20052;-70
2023/06/18 00:31:20;;;;;;;30.38;27.08;;;16.40;99.90;;;;;;5026881;28;20036;-70
2023/06/18 00:33:46;;;;;;;31.63;26.98;;;16.40;99.90;;;;;;5054720;28;20438;-70
2023/06/18 00:36:12;;;;;;;31.92;25.70;;;16.40;99.90;;;;;;5044114;28;20072;-73
2023/06/18 00:38:45;;;;;;;32.00;26.88;;;16.40;99.90;;;;;;5036447;28;20068;-70
2023/06/18 00:41:11;;;;;;;30.30;26.17;;;16.30;99.90;;;;;;5044251;28;20056;-75
2023/06/18 00:43:37;;;;;;;31.95;26.92;;;16.30;99.90;;;;;;5042925;28;20052;-70
2023/06/18 00:46:05;;;;;;;34.92;27.60;;;16.30;99.90;;;;;;5056025;28;20421;-70
2023/06/18 00:48:32;;;;;;;32.47;26.42;;;16.20;99.90;;;;;;5035919;28;20680;-70
2023/06/18 00:51:01;;;;;;;30.92;26.27;;;16.20;99.90;;;;;;5019940;28;20044;-73
2023/06/18 00:53:28;;;;;;;31.75;25.65;;;16.20;99.90;;;;;;5049739;28;20049;-69
2023/06/18 00:55:53;;;;;;;30.77;26.45;;;16.20;99.90;;;;;;5036252;28;20049;-69
2023/06/18 00:58:23;;;;;;;29.30;26.08;;;16.20;99.90;;;;;;5036491;28;20041;-69
2023/06/18 01:00:50;;;;;;;33.25;26.70;;;16.10;99.90;;;;;;5031262;28;20049;-68
2023/06/18 01:03:18;;;;;;;33.25;25.92;;;16.10;99.90;;;;;;4999581;28;20056;-70
2023/06/18 01:05:57;;;;;;;31.20;25.45;;;16.10;99.90;;;;;;5031307;28;20045;-68
2023/06/18 01:08:24;;;;;;;31.77;24.85;;;16.10;99.90;;;;;;5043840;28;20052;-70
2023/06/18 01:11:01;;;;;;;30.60;25.98;;;16.10;99.90;;;;;;5049914;28;20083;-69
2023/06/18 01:13:33;;;;;;;28.00;24.48;;;16.10;99.90;;;;;;5054216;28;20142;-69
2023/06/18 01:16:06;;;;;;;30.35;25.98;;;16.10;99.90;;;;;;5030694;28;20128;-69
2023/06/18 01:18:36;;;;;;;30.95;25.52;;;16.10;99.90;;;;;;5033960;28;20044;-69
2023/06/18 01:21:09;;;;;;;30.17;25.58;;;16.10;99.90;;;;;;5053002;28;20044;-69
2023/06/18 01:24:11;;;;;;;28.77;25.67;;;16.10;99.90;;;;;;5040224;28;20524;-69
2023/06/18 01:26:41;;;;;;;27.83;24.77;;;16.00;99.90;;;;;;5053409;28;20083;-69
2023/06/18 01:29:09;;;;;;;28.38;24.55;;;16.00;99.90;;;;;;5033683;28;20121;-68
2023/06/18 01:31:36;;;;;;;32.55;26.08;;;16.00;99.90;;;;;;5051216;28;20124;-69
2023/06/18 01:34:04;;;;;;;32.45;26.13;;;16.00;99.90;;;;;;5035721;28;20124;-68
2023/06/18 01:36:47;;;;;;;31.23;25.88;;;16.00;99.90;;;;;;5035924;28;20071;-71
2023/06/18 01:39:42;;;;;;;32.72;24.98;;;16.00;99.90;;;;;;5055799;28;20037;-68
2023/06/18 01:42:17;;;;;;;;;;;16.00;99.90;;;;;;5044734;28;20044;-68
2023/06/18 01:44:45;;;;;;;;;;;16.00;99.90;;;;;;5046077;28;20014;-68
2023/06/18 01:47:13;;;;;;;30.90;25.02;;;15.90;99.90;;;;;;5040003;28;20075;-68
2023/06/18 01:49:41;;;;;;;28.90;25.77;;;15.90;99.90;;;;;;5050355;28;20111;-68
2023/06/18 01:52:08;;;;;;;28.60;24.70;;;15.80;99.90;;;;;;5034853;28;20102;-68
2023/06/18 01:54:36;;;;;;;29.63;24.77;;;15.80;99.90;;;;;;5051953;28;20102;-68
2023/06/18 01:57:03;;;;;;;29.02;25.77;;;15.80;99.90;;;;;;5035291;28;20084;-70
2023/06/18 01:59:29;;;;;;;31.83;25.63;;;15.80;99.90;;;;;;5052290;28;20106;-70
2023/06/18 02:01:56;;;;;;;32.08;25.55;;;15.80;99.90;;;;;;5026952;28;20049;-69
2023/06/18 02:04:22;;;;;;;30.10;24.60;;;15.80;99.90;;;;;;5042112;28;20166;-76
2023/06/18 02:06:48;;;;;;;32.85;25.85;;;15.80;99.90;;;;;;5028212;28;20087;-69
2023/06/18 02:09:13;;;;;;;34.95;25.63;;;15.70;99.90;;;;;;5014155;28;20073;-69
2023/06/18 02:11:39;;;;;;;32.00;25.95;;;15.70;99.90;;;;;;5042434;28;20052;-70
2023/06/18 02:14:05;;;;;;;32.88;25.45;;;15.60;99.90;;;;;;5003387;28;20399;-70
2023/06/18 02:16:31;;;;;;;30.95;26.65;;;15.60;99.90;;;;;;5020755;28;20099;-69
2023/06/18 02:18:56;;;;;;;32.47;26.58;;;15.60;99.90;;;;;;5034407;28;20504;-69
2023/06/18 02:21:22;;;;;;;31.05;25.60;;;15.50;99.90;;;;;;4999199;28;20041;-74
2023/06/18 02:23:48;;;;;;;29.25;25.40;;;15.50;99.90;;;;;;5035252;28;20045;-69
2023/06/18 02:26:13;;;;;;;26.60;23.45;;;15.40;99.90;;;;;;5052024;28;20128;-69
2023/06/18 02:28:39;;;;;;;28.35;23.73;;;15.30;99.90;;;;;;5034206;28;20044;-69
2023/06/18 02:31:06;;;;;;;30.92;24.83;;;15.30;99.90;;;;;;5029085;28;20087;-69
2023/06/18 02:33:32;;;;;;;27.35;23.73;;;15.30;99.90;;;;;;5043334;28;20478;-69
2023/06/18 02:35:58;;;;;;;47.85;24.85;;;15.20;99.90;;;;;;5072464;28;20049;-70
2023/06/18 02:38:23;;;;;;;299.10;29.98;;;15.20;99.90;;;;;;5065046;28;20094;-70
2023/06/18 02:40:49;;;;;;;141.95;27.73;;;15.20;99.90;;;;;;5049161;28;20044;-70
2023/06/18 02:43:15;;;;;;;311.35;31.77;;;15.10;99.90;;;;;;5066791;28;20124;-69
2023/06/18 02:45:40;;;;;;;172.68;28.38;;;15.00;99.90;;;;;;5057950;28;20539;-70
2023/06/18 02:48:06;;;;;;;79.22;26.40;;;15.00;99.90;;;;;;5070344;28;20044;-71
2023/06/18 02:50:32;;;;;;;134.13;26.63;;;15.00;99.90;;;;;;5029513;28;20399;-70
2023/06/18 02:52:58;;;;;;;151.18;27.35;;;14.90;99.90;;;;;;5070597;28;20087;-70
2023/06/18 02:55:23;;;;;;;185.27;29.60;;;14.90;99.90;;;;;;5049001;28;20060;-70
2023/06/18 02:57:50;;;;;;;112.38;27.42;;;14.90;99.90;;;;;;5042771;28;20090;-70
2023/06/18 03:00:16;;;;;;;95.63;27.63;;;14.80;99.90;;;;;;5052788;28;20053;-70
2023/06/18 03:02:42;;;;;;;86.75;26.23;;;14.80;99.90;;;;;;5064342;28;20053;-70
2023/06/18 03:05:09;;;;;;;166.02;28.83;;;14.80;99.90;;;;;;5062527;28;20055;-70
2023/06/18 03:07:35;;;;;;;91.10;25.88;;;14.80;99.90;;;;;;5053130;28;20040;-71
2023/06/18 03:10:01;;;;;;;58.78;26.67;;;14.80;99.90;;;;;;5048064;28;20110;-70
2023/06/18 03:12:28;;;;;;;186.98;31.02;;;14.80;99.90;;;;;;5071840;28;20075;-70
2023/06/18 03:14:54;;;;;;;111.30;29.67;;;14.80;99.90;;;;;;5025117;28;20137;-70
2023/06/18 03:17:20;;;;;;;125.68;28.48;;;14.80;99.90;;;;;;5041306;28;20504;-70
2023/06/18 03:19:45;;;;;;;54.13;29.10;;;14.80;99.90;;;;;;5046947;28;20037;-70
2023/06/18 03:22:11;;;;;;;44.17;28.70;;;14.80;99.90;;;;;;5024018;28;20072;-70
2023/06/18 03:24:40;;;;;;;109.13;29.13;;;14.80;99.90;;;;;;5038885;28;20045;-70
2023/06/18 03:27:06;;;;;;;71.63;27.33;;;14.80;99.90;;;;;;5055651;28;20040;-69
2023/06/18 03:29:34;;;;;;;72.90;26.25;;;14.80;99.90;;;;;;5047179;28;20189;-76
2023/06/18 03:32:00;;;;;;;35.53;26.05;;;14.70;99.90;;;;;;5051821;28;20440;-69
2023/06/18 03:34:26;;;;;;;47.22;27.42;;;14.80;99.90;;;;;;5062730;28;20155;-70
2023/06/18 03:36:53;;;;;;;92.68;27.23;;;14.80;99.90;;;;;;5024705;28;20507;-69
2023/06/18 03:39:20;;;;;;;85.90;26.50;;;14.80;99.90;;;;;;5046497;28;20028;-69
2023/06/18 03:41:45;;;;;;;73.53;26.63;;;14.90;99.90;;;;;;5065664;28;20060;-69
2023/06/18 03:44:11;;;;;;;106.70;26.50;;;14.90;99.90;;;;;;5066393;28;20181;-69
2023/06/18 03:46:37;;;;;;;79.47;26.98;;;14.90;99.90;;;;;;5035854;28;20478;-71
2023/06/18 03:49:03;;;;;;;85.38;27.67;;;14.90;99.90;;;;;;5033407;28;20049;-69
2023/06/18 03:51:29;;;;;;;156.68;28.58;;;14.80;99.90;;;;;;5033817;28;20037;-70
2023/06/18 03:53:54;;;;;;;158.00;28.77;;;14.90;99.90;;;;;;5033167;28;20059;-69
2023/06/18 03:56:23;;;;;;;60.88;27.70;;;14.90;99.90;;;;;;5050773;28;20082;-69
2023/06/18 03:58:49;;;;;;;109.57;28.90;;;14.90;99.90;;;;;;5050703;28;20048;-69
2023/06/18 04:01:15;;;;;;;79.30;25.65;;;14.90;99.90;;;;;;5033210;28;20045;-69
2023/06/18 04:03:41;;;;;;;65.10;26.88;;;15.00;99.90;;;;;;5016792;28;20060;-69
2023/06/18 04:06:07;;;;;;;141.77;29.67;;;15.00;99.90;;;;;;5017214;28;20059;-70
2023/06/18 04:08:36;;;;;;;97.90;27.52;;;14.90;99.90;;;;;;5051051;28;20062;-69
2023/06/18 04:11:03;;;;;;;144.52;30.70;;;15.00;99.90;;;;;;5032628;28;20140;-71
2023/06/18 04:13:28;;;;;;;75.18;27.88;;;15.00;99.90;;;;;;5000419;28;20080;-72
2023/06/18 04:15:54;;;;;;;114.45;29.52;;;15.00;99.90;;;;;;5033088;28;20143;-70
2023/06/18 04:18:20;;;;;;;52.60;27.83;;;15.00;99.90;;;;;;5032718;28;20077;-70
2023/06/18 04:20:46;;;;;;;110.13;30.23;;;15.00;99.90;;;;;;5033055;28;20107;-70
2023/06/18 04:23:13;;;;;;;76.43;27.73;;;15.00;99.90;;;;;;5033452;28;20037;-70
2023/06/18 04:25:39;;;;;;;53.05;26.90;;;15.10;99.90;;;;;;5032995;28;20432;-73
2023/06/18 04:28:05;;;;;;;54.97;25.42;;;15.10;99.90;;;;;;5049485;28;20490;-70
2023/06/18 04:30:31;;;;;;;40.40;27.48;;;15.10;99.90;;;;;;5045991;28;20045;-70
2023/06/18 04:32:56;;;;;;;106.13;29.88;;;15.20;99.90;;;;;;5037261;28;20434;-70
2023/06/18 04:35:22;;;;;;;75.43;28.67;;;15.20;99.90;;;;;;5019560;28;20045;-70
2023/06/18 04:37:49;;;;;;;59.90;28.83;;;15.30;99.90;;;;;;5038492;28;20037;-70
2023/06/18 04:40:15;;;;;;;55.08;26.80;;;15.30;99.90;;;;;;5064356;28;20067;-70
2023/06/18 04:42:41;;;;;;;57.35;28.08;;;15.30;99.90;;;;;;5052501;28;20044;-70
2023/06/18 04:45:08;;;;;;;49.15;25.05;;;15.40;99.90;;;;;;5054667;28;20090;-70
2023/06/18 04:47:34;;;;;;;54.67;28.05;;;15.50;99.90;;;;;;5039906;28;20053;-70
2023/06/18 04:50:02;;;;;;;60.67;27.55;;;15.50;99.90;;;;;;5053313;28;20312;-70
2023/06/18 04:52:28;;;;;;;34.55;26.73;;;15.50;99.90;;;;;;5054053;28;20049;-70
2023/06/18 04:54:53;;;;;;;46.60;23.38;;;15.60;99.90;;;;;;5053598;28;20098;-70
2023/06/18 04:57:19;;;;;;;39.42;23.73;;;15.70;99.90;;;;;;5038290;28;20131;-70
2023/06/18 04:59:45;;;;;;;31.92;23.88;;;15.70;99.90;;;;;;5037908;28;20094;-78
2023/06/18 05:02:11;;;;;;;44.75;23.90;;;15.70;99.90;;;;;;5056168;28;20479;-70
2023/06/18 05:04:36;;;;;;;34.65;23.65;;;15.70;99.90;;;;;;5053342;28;20043;-70
2023/06/18 05:07:02;;;;;;;37.30;23.92;;;15.70;99.90;;;;;;5053335;28;20045;-70
2023/06/18 05:09:29;;;;;;;45.72;24.80;;;15.70;99.90;;;;;;5035866;28;20040;-70
2023/06/18 05:11:55;;;;;;;48.75;23.85;;;15.70;99.90;;;;;;5058885;28;20490;-70
2023/06/18 05:14:21;;;;;;;26.35;21.10;;;15.80;99.90;;;;;;5036160;28;20055;-70
2023/06/18 05:16:47;;;;;;;29.35;22.17;;;15.80;99.90;;;;;;5019195;28;20037;-78
2023/06/18 05:19:12;;;;;;;29.35;23.00;;;15.80;99.90;;;;;;5037896;28;20130;-71
2023/06/18 05:21:38;;;;;;;26.40;21.05;;;15.90;99.90;;;;;;5038353;28;20159;-70
2023/06/18 05:24:05;;;;;;;27.23;21.30;;;16.00;99.90;;;;;;5003230;28;20402;-71
2023/06/18 05:26:31;;;;;;;26.25;21.27;;;16.20;99.90;;;;;;5036180;28;20049;-71
2023/06/18 05:28:57;;;;;;;23.02;19.77;;;16.30;99.90;;;;;;5056374;28;20068;-71
2023/06/18 05:31:22;;;;;;;21.88;19.05;;;16.50;99.90;;;;;;5036905;28;20068;-71
2023/06/18 05:33:48;;;;;;;22.35;19.55;;;16.80;99.90;;;;;;5054088;28;20055;-71
2023/06/18 05:36:14;;;;;;;19.70;17.25;;;17.10;99.90;;;;;;5035807;28;20057;-71
2023/06/18 05:38:40;;;;;;;19.55;17.45;;;17.60;99.90;;;;;;5060176;28;20508;-71
2023/06/18 05:41:06;;;;;;;21.10;18.13;;;18.10;99.90;;;;;;5039438;28;20044;-72
2023/06/18 05:43:31;;;;;;;19.45;17.38;;;18.60;99.90;;;;;;5045168;28;20048;-71
2023/06/18 05:45:57;;;;;;;19.48;17.38;;;19.00;99.90;;;;;;5069289;28;20063;-71
2023/06/18 05:48:23;;;;;;;18.05;15.95;;;19.30;99.90;;;;;;5044670;28;20098;-71
2023/06/18 05:50:49;;;;;;;17.08;15.27;;;19.90;99.90;;;;;;5068430;28;20123;-71
2023/06/18 05:53:15;;;;;;;17.27;14.70;;;20.30;99.90;;;;;;5058647;28;20091;-71
2023/06/18 05:55:41;;;;;;;16.58;14.15;;;20.90;99.90;;;;;;5055897;28;20470;-71
2023/06/18 05:58:07;;;;;;;15.82;12.88;;;21.10;99.90;;;;;;5055764;28;20041;-71
2023/06/18 06:00:33;;;;;;;14.45;12.93;;;21.50;99.90;;;;;;5053056;28;20364;-71
2023/06/18 06:02:58;;;;;;;13.82;12.05;;;21.90;99.90;;;;;;5054264;28;20471;-71
2023/06/18 06:05:24;;;;;;;13.02;11.82;;;22.20;99.90;;;;;;5024743;28;20045;-71
2023/06/18 06:07:50;;;;;;;13.57;11.82;;;22.30;99.90;;;;;;5035123;28;20068;-72
2023/06/18 06:10:17;;;;;;;13.38;11.32;;;22.60;99.90;;;;;;5029429;28;20135;-71
2023/06/18 06:12:43;;;;;;;13.13;11.77;;;22.60;99.90;;;;;;5034893;28;20116;-71
2023/06/18 06:15:09;;;;;;;13.15;11.85;;;22.80;99.90;;;;;;5034865;28;20128;-71
2023/06/18 06:17:36;;;;;;;13.20;11.73;;;23.20;99.90;;;;;;5034812;28;20410;-72
2023/06/18 06:20:02;;;;;;;12.57;11.27;;;23.30;99.90;;;;;;5034255;28;20381;-72
2023/06/18 06:22:28;;;;;;;11.70;10.50;;;23.60;99.90;;;;;;5052288;28;20548;-72
2023/06/18 06:24:54;;;;;;;17.02;11.40;;;23.90;99.90;;;;;;5048474;28;20056;-73
2023/06/18 06:27:20;;;;;;;11.68;10.48;;;23.90;99.90;;;;;;5012849;28;20041;-72
2023/06/18 06:29:46;;;;;;;11.02;9.93;;;24.10;99.90;;;;;;5015177;28;20133;-71
2023/06/18 06:32:12;;;;;;;10.90;9.73;;;24.00;99.90;;;;;;5038527;28;20056;-70
2023/06/18 06:34:37;;;;;;;12.65;11.32;;;24.30;99.90;;;;;;5053179;28;20446;-73
2023/06/18 06:37:03;;;;;;;13.15;11.85;;;24.40;99.90;;;;;;5034748;28;20533;-75
2023/06/18 06:39:29;;;;;;;14.88;11.32;;;24.60;99.90;;;;;;5043337;28;20057;-71
2023/06/18 06:41:55;;;;;;;11.80;10.48;;;24.90;99.90;;;;;;5006761;28;20045;-75
2023/06/18 06:44:21;;;;;;;10.88;9.50;;;25.10;99.90;;;;;;5017292;28;20045;-71
2023/06/18 06:46:46;;;;;;;10.95;9.82;;;25.20;99.90;;;;;;5052354;28;20044;-70
2023/06/18 06:49:12;;;;;;;11.93;9.57;;;25.40;99.90;;;;;;5012750;28;20165;-69
2023/06/18 06:51:38;;;;;;;11.77;9.68;;;25.60;99.90;;;;;;5035681;28;20083;-71
2023/06/18 06:54:05;;;;;;;11.23;9.32;;;25.60;99.90;;;;;;5049936;28;20100;-72
2023/06/18 06:56:31;;;;;;;15.45;10.02;;;25.60;99.90;;;;;;5034746;28;20079;-75
2023/06/18 06:58:57;;;;;;;12.80;9.80;;;25.70;99.90;;;;;;5048991;28;20160;-70
2023/06/18 07:01:23;;;;;;;12.35;9.88;;;26.00;99.90;;;;;;5032974;28;20099;-70
2023/06/18 07:03:49;;;;;;;11.90;10.70;;;26.40;99.70;;;;;;5043903;28;20041;-72
2023/06/18 07:06:15;;;;;;;11.77;9.90;;;26.60;99.10;;;;;;5042929;28;20049;-71
2023/06/18 07:08:41;;;;;;;11.55;10.00;;;26.50;98.80;;;;;;5045257;28;20049;-70
2023/06/18 07:11:07;;;;;;;11.40;9.68;;;26.60;98.70;;;;;;4994476;28;20049;-71
2023/06/18 07:13:33;;;;;;;11.63;10.13;;;26.60;98.50;;;;;;5007444;28;20061;-72
2023/06/18 07:15:59;;;;;;;12.00;9.65;;;26.70;98.40;;;;;;5029813;28;20041;-70
2023/06/18 07:18:25;;;;;;;14.27;10.60;;;26.70;98.50;;;;;;5033733;28;20131;-72
2023/06/18 07:20:50;;;;;;;11.32;10.10;;;26.80;98.30;;;;;;5033506;28;20076;-71
2023/06/18 07:23:16;;;;;;;12.20;9.32;;;27.00;98.20;;;;;;5030175;28;20124;-70
2023/06/18 07:25:42;;;;;;;11.35;10.15;;;27.20;97.80;;;;;;5050062;28;20490;-68
2023/06/18 07:28:08;;;;;;;11.90;10.27;;;27.30;97.80;;;;;;5045294;28;20051;-70
2023/06/18 07:30:34;;;;;;;12.52;10.60;;;27.20;97.50;;;;;;5033490;28;20098;-74
2023/06/18 07:33:00;;;;;;;12.05;9.75;;;26.90;97.50;;;;;;5016501;28;20076;-73
2023/06/18 07:35:25;;;;;;;11.90;10.57;;;26.50;97.70;;;;;;5044441;28;20049;-72
2023/06/18 07:37:51;;;;;;;13.00;10.15;;;26.30;97.70;;;;;;5036950;28;20045;-70
2023/06/18 07:40:17;;;;;;;11.68;9.80;;;26.40;98.00;;;;;;5019732;28;20470;-71
2023/06/18 07:42:43;;;;;;;10.93;9.80;;;26.90;97.50;;;;;;5049659;28;20040;-71
2023/06/18 07:45:10;;;;;;;12.38;10.70;;;27.30;97.30;;;;;;5000241;28;20077;-78
2023/06/18 07:47:35;;;;;;;12.88;10.32;;;28.00;97.00;;;;;;5033293;28;20053;-72
2023/06/18 07:50:02;;;;;;;11.45;10.25;;;28.00;95.90;;;;;;5061411;28;20086;-74
2023/06/18 07:52:27;;;;;;;11.77;10.18;;;28.30;95.50;;;;;;5017560;28;20251;-72
2023/06/18 07:54:53;;;;;;;13.43;10.32;;;28.70;96.00;;;;;;5028180;28;20522;-72
2023/06/18 07:57:19;;;;;;;11.85;10.15;;;28.90;95.20;;;;;;5035582;28;20396;-72
2023/06/18 07:59:45;;;;;;;12.18;10.85;;;28.90;95.10;;;;;;5038031;28;20120;-72
2023/06/18 08:02:11;;;;;;;13.10;10.52;;;28.60;95.30;;;;;;5024053;28;20072;-75
2023/06/18 08:04:37;;;;;;;11.27;10.05;;;28.60;95.20;;;;;;5052161;28;20045;-73
2023/06/18 08:07:03;;;;;;;11.80;9.73;;;28.50;95.10;;;;;;5033359;28;20497;-73
2023/06/18 08:09:29;;;;;;;11.88;9.80;;;28.50;95.00;;;;;;4995997;28;20041;-74
2023/06/18 08:11:55;;;;;;;11.43;9.85;;;28.50;95.20;;;;;;5016928;28;20044;-74
2023/06/18 08:14:21;;;;;;;11.43;9.43;;;28.60;94.80;;;;;;5011862;28;20057;-74
2023/06/18 08:16:46;;;;;;;10.88;9.77;;;28.80;94.70;;;;;;5030120;28;20084;-73
2023/06/18 08:19:12;;;;;;;10.55;8.95;;;29.40;94.70;;;;;;5041316;28;20629;-77
2023/06/18 08:21:38;;;;;;;10.82;9.00;;;29.70;94.50;;;;;;5009954;28;20053;-72
2023/06/18 08:24:04;;;;;;;11.30;9.15;;;30.00;94.50;;;;;;5021390;28;20045;-72
2023/06/18 08:26:30;;;;;;;10.55;9.25;;;30.20;93.60;;;;;;5016350;28;20407;-74
2023/06/18 08:28:55;;;;;;;12.35;9.30;;;30.20;93.40;;;;;;5020946;28;20033;-73
2023/06/18 08:31:22;;;;;;;12.00;9.35;;;30.60;93.30;;;;;;5042379;28;20106;-71
2023/06/18 08:33:48;;;;;;;13.57;9.68;;;31.10;93.00;;;;;;5036248;28;20037;-73
2023/06/18 08:36:14;;;;;;;13.43;9.25;;;31.10;92.70;;;;;;5053242;28;20505;-76
2023/06/18 08:38:40;;;;;;;11.88;9.48;;;31.20;92.80;;;;;;5056755;28;20044;-75
2023/06/18 08:41:07;;;;;;;11.38;9.57;;;31.10;92.50;;;;;;5040407;28;20437;-72
2023/06/18 08:43:36;;;;;;;11.30;9.90;;;31.10;92.60;;;;;;5036391;28;20076;-74
2023/06/18 08:46:08;;;;;;;11.18;9.52;;;31.30;92.50;;;;;;5054035;28;20124;-72
2023/06/18 08:48:49;;;;;;;11.13;9.27;;;31.30;92.10;;;;;;5053682;28;20069;-73
2023/06/18 08:51:16;;;;;;;11.07;9.73;;;31.40;92.10;;;;;;5060393;28;20494;-75
2023/06/18 08:53:50;;;;;;;13.00;8.82;;;32.00;92.00;;;;;;5052220;28;20041;-73
2023/06/18 08:56:20;;;;;;;11.25;9.40;;;32.30;91.70;;;;;;5039957;28;20041;-76
2023/06/18 08:58:51;;;;;;;10.60;9.50;;;32.40;91.40;;;;;;5035356;28;20110;-76
2023/06/18 09:01:20;;;;;;;11.35;8.82;;;32.50;91.00;;;;;;5024463;28;20059;-75
2023/06/18 09:03:47;;;;;;;12.48;9.73;;;32.50;90.80;;;;;;5019756;28;20076;-73
2023/06/18 09:06:13;;;;;;;10.57;9.40;;;32.70;90.80;;;;;;5056664;28;20085;-73
2023/06/18 09:08:39;;;;;;;9.85;8.60;;;32.40;90.80;;;;;;5063859;28;20881;-73
2023/06/18 09:11:06;;;;;;;10.40;9.32;;;31.80;91.10;;;;;;5040523;28;20561;-72
2023/06/18 09:13:32;;;;;;;11.48;10.05;;;31.60;91.30;;;;;;5062323;28;20044;-73
2023/06/18 09:15:59;;;;;;;10.88;8.82;;;31.30;91.60;;;;;;5039364;28;20084;-73
2023/06/18 09:18:26;;;;;;;11.45;8.43;;;31.30;91.80;;;;;;5045417;28;20509;-73
2023/06/18 09:20:55;;;;;;;10.90;8.13;;;31.60;91.90;;;;;;5033204;28;20049;-74
2023/06/18 09:23:21;;;;;;;11.88;8.68;;;32.00;91.70;;;;;;5030928;28;20048;-76
2023/06/18 09:25:54;;;;;;;11.85;9.10;;;32.10;91.30;;;;;;5022079;28;20042;-73
2023/06/18 09:28:21;;;;;;;10.20;7.85;;;32.00;90.90;;;;;;5043971;28;20045;-75
2023/06/18 09:30:56;;;;;;;11.50;8.20;;;31.90;91.10;;;;;;5052539;28;20048;-73
2023/06/18 09:33:35;;;;;;;12.13;8.25;;;32.10;90.90;;;;;;5052999;28;20129;-74
2023/06/18 09:36:08;;;;;;;9.55;7.53;;;32.30;90.90;;;;;;5051784;28;20056;-72
2023/06/18 09:38:35;;;;;;;9.27;8.27;;;32.40;90.90;;;;;;5047738;28;20497;-73
2023/06/18 09:41:01;;;;;;;9.15;7.57;;;32.40;91.30;;;;;;5052576;28;20082;-72
2023/06/18 09:43:48;;;;;;;9.93;7.75;;;32.40;91.20;;;;;;5052640;28;20490;-72
2023/06/18 09:46:15;;;;;;;9.57;6.50;;;32.20;91.00;;;;;;5047670;28;20045;-74
2023/06/18 09:48:46;;;;;;;9.05;6.90;;;32.50;90.90;;;;;;5032928;28;20056;-72
2023/06/18 09:51:15;;;;;;;7.63;6.82;;;32.50;90.30;;;;;;5034397;28;20044;-71
2023/06/18 09:53:40;;;;;;;8.63;7.43;;;32.60;90.40;;;;;;5032068;28;20049;-72
2023/06/18 09:56:10;;;;;;;8.75;7.10;;;32.60;90.10;;;;;;5017012;28;20056;-71
2023/06/18 09:58:42;;;;;;;9.32;7.05;;;32.70;89.60;;;;;;5029721;28;20045;-71
2023/06/18 10:01:08;;;;;;;7.95;6.40;;;32.70;88.10;;;;;;5047679;28;20072;-72
2023/06/18 10:03:35;;;;;;;7.97;6.05;;;32.50;88.00;;;;;;5023625;28;20893;-72
2023/06/18 10:06:07;;;;;;;8.43;5.93;;;32.40;86.90;;;;;;5033849;28;20486;-70
2023/06/18 10:08:34;;;;;;;8.15;6.97;;;32.50;86.20;;;;;;5038995;28;20433;-71
2023/06/18 10:10:59;;;;;;;11.55;6.80;;;32.80;86.60;;;;;;5028125;28;20456;-70
2023/06/18 10:13:27;;;;;;;8.10;6.85;;;32.70;88.10;;;;;;5018363;28;20158;-74
2023/06/18 10:15:55;;;;;;;9.13;6.32;;;32.70;87.40;;;;;;5035065;28;20049;-72
2023/06/18 10:18:23;;;;;;;8.02;7.15;;;32.50;87.20;;;;;;5040925;28;20045;-72
2023/06/18 10:20:54;;;;;;;8.93;6.57;;;32.30;87.20;;;;;;5037329;28;20186;-72
2023/06/18 10:23:22;;;;;;;9.88;7.10;;;32.00;87.90;;;;;;5063643;28;20407;-72
2023/06/18 10:25:48;;;;;;;9.88;7.10;;;31.80;88.50;;;;;;5059514;28;20170;-72
2023/06/18 10:28:14;;;;;;;7.80;6.55;;;31.80;88.10;;;;;;5029930;28;20544;-72
2023/06/18 10:30:40;;;;;;;10.27;6.95;;;31.60;87.40;;;;;;5034141;28;20041;-72
2023/06/18 10:33:06;;;;;;;9.13;6.03;;;31.40;87.20;;;;;;5052463;28;20044;-72
2023/06/18 10:35:31;;;;;;;9.32;6.65;;;31.40;87.30;;;;;;5033125;28;20122;-73
2023/06/18 10:37:58;;;;;;;9.68;6.53;;;31.20;85.60;;;;;;5025540;28;20045;-72
2023/06/18 10:40:24;;;;;;;9.55;6.28;;;31.10;85.60;;;;;;5053601;28;20044;-72
2023/06/18 10:42:50;;;;;;;7.80;6.13;;;31.10;86.40;;;;;;5024373;28;20052;-70
2023/06/18 10:45:17;;;;;;;8.95;6.50;;;31.20;85.90;;;;;;5054193;28;20052;-70
2023/06/18 10:47:43;;;;;;;7.53;6.15;;;31.10;85.10;;;;;;5033456;28;20045;-71
2023/06/18 10:50:15;;;;;;;8.10;5.82;;;30.90;85.30;;;;;;5020432;28;20127;-71
2023/06/18 10:52:43;;;;;;;7.75;6.22;;;30.80;86.10;;;;;;5030753;28;20402;-71
2023/06/18 10:55:12;;;;;;;7.40;6.22;;;30.90;85.90;;;;;;5034414;28;20454;-70
2023/06/18 10:57:45;;;;;;;7.40;6.18;;;30.80;85.50;;;;;;5033364;28;20048;-71
2023/06/18 11:00:28;;;;;;;7.70;5.97;;;30.70;84.90;;;;;;5053142;28;20120;-71
2023/06/18 11:03:00;;;;;;;8.53;6.43;;;30.80;84.80;;;;;;5051289;28;20057;-71
2023/06/18 11:05:34;;;;;;;7.15;5.93;;;30.70;84.90;;;;;;5034215;28;20287;-73
2023/06/18 11:08:02;;;;;;;8.10;5.72;;;30.80;84.70;;;;;;5017636;28;20140;-71
2023/06/18 11:10:35;;;;;;;9.23;5.70;;;30.90;85.00;;;;;;5036827;28;20123;-73
2023/06/18 11:13:04;;;;;;;7.63;5.57;;;31.10;84.40;;;;;;5030622;28;20049;-74
2023/06/18 11:15:30;;;;;;;7.50;6.03;;;31.30;84.10;;;;;;5031406;28;20499;-74
2023/06/18 11:18:00;;;;;;;8.30;6.28;;;31.40;82.50;;;;;;5029651;28;20080;-74
2023/06/18 11:20:29;;;;;;;9.95;6.60;;;31.20;82.60;;;;;;5034153;28;20098;-73
2023/06/18 11:22:56;;;;;;;9.15;6.35;;;31.10;82.10;;;;;;5032327;28;20718;-74
2023/06/18 11:25:24;;;;;;;7.03;5.95;;;30.90;82.40;;;;;;5030561;28;20133;-73
2023/06/18 11:27:51;;;;;;;8.00;6.45;;;30.90;82.90;;;;;;5045813;28;20386;-71
2023/06/18 11:30:18;;;;;;;8.10;6.10;;;31.00;83.20;;;;;;5031362;28;20052;-72
2023/06/18 11:32:44;;;;;;;7.38;6.18;;;31.00;83.60;;;;;;5031056;28;20057;-72
2023/06/18 11:35:11;;;;;;;7.90;6.43;;;31.20;83.30;;;;;;5031447;28;20049;-74
2023/06/18 11:37:42;;;;;;;7.30;5.65;;;31.00;83.30;;;;;;5018359;28;20077;-74
2023/06/18 11:40:09;;;;;;;7.97;5.90;;;30.90;83.60;;;;;;5029179;28;20053;-74
2023/06/18 11:42:37;;;;;;;8.90;5.97;;;31.00;82.70;;;;;;5029063;28;20072;-73
2023/06/18 11:45:05;;;;;;;8.15;6.05;;;31.00;81.10;;;;;;5023755;28;20497;-72
2023/06/18 11:47:33;;;;;;;8.30;5.90;;;30.90;80.80;;;;;;5016745;28;20061;-74
2023/06/18 11:49:59;;;;;;;9.30;5.57;;;30.90;80.10;;;;;;5025156;28;20307;-74
2023/06/18 11:52:26;;;;;;;10.15;5.95;;;30.90;81.30;;;;;;5030303;28;20124;-74
2023/06/18 11:54:54;;;;;;;8.10;5.93;;;31.00;81.80;;;;;;5034195;28;20120;-73
2023/06/18 11:57:21;;;;;;;7.05;6.03;;;31.20;81.20;;;;;;5001943;28;20349;-72
2023/06/18 11:59:50;;;;;;;6.60;5.93;;;31.30;81.40;;;;;;5015688;28;20200;-72
2023/06/18 12:02:23;;;;;;;8.45;5.97;;;31.40;80.80;;;;;;5036194;28;20052;-72
2023/06/18 12:04:50;;;;;;;8.10;5.87;;;31.60;81.10;;;;;;5017081;28;20121;-72
2023/06/18 12:07:25;;;;;;;8.75;6.13;;;31.70;81.30;;;;;;5033417;28;20289;-72
2023/06/18 12:09:58;;;;;;;8.32;5.65;;;31.80;80.90;;;;;;5013177;28;20062;-71
2023/06/18 12:12:28;;;;;;;6.65;5.90;;;31.80;80.10;;;;;;5035120;28;20453;-73
2023/06/18 12:15:05;;;;;;;8.05;6.15;;;31.80;79.60;;;;;;5035525;28;20055;-72
2023/06/18 12:17:54;;;;;;;8.35;6.05;;;31.70;79.40;;;;;;5032827;28;20049;-72
2023/06/18 12:20:23;;;;;;;7.43;5.75;;;31.70;79.70;;;;;;5005236;28;20050;-72
2023/06/18 12:22:49;;;;;;;8.85;6.15;;;31.60;80.00;;;;;;5028766;28;20049;-72
2023/06/18 12:25:16;;;;;;;7.97;6.35;;;31.60;79.80;;;;;;5042945;28;20486;-72
2023/06/18 12:27:43;;;;;;;7.97;6.32;;;31.50;79.80;;;;;;5023156;28;20505;-73
2023/06/18 12:30:11;;;;;;;6.75;5.80;;;31.60;79.50;;;;;;5012638;28;20038;-72
2023/06/18 12:32:37;;;;;;;8.63;6.13;;;31.60;79.50;;;;;;5033392;28;20096;-71
2023/06/18 12:35:17;;;;;;;8.82;6.32;;;31.50;79.40;;;;;;5038159;28;20092;-72